Victoria Regional Airport
KVCT : now visible

Airfield :











YOU CAN JOIN US ON...

 
LOGIN :

Register | Disclaimer

   EN    FR    IT 

 









Legend :    VFR   Marginal VFR   IFR   Intensive IFR   Very Intensive IFR
Visi :
Ceiling :
>= 8 km
>= 3000ft
5 to 8 km
1000 to 3000 ft
1500m to 5 km
500 to 1000 ft
800 to 1500m
200 to 500 ft
< 800m
< 200 ft
Symbols :   Thunderstorms  Fog  Heavy snow  Heavy precipitations  Wind > 20 kt






- Airport Elevation : 115 ft
- IATA code : VCT


KVCT - Victoria Regional

CURRENT METAR :
  • 141251Z 03004KT 10SM CLR 07/06 A2987 RMK AO2 SLP114 T00720061

EXPIRED METARs :
  • 141151Z AUTO 00000KT 10SM CLR 08/06 A2986 RMK AO2 SLP109 T00780061 10111 20072 55004
  • 141051Z AUTO 00000KT 10SM CLR 08/06 A2985 RMK AO2 SLP107 T00780061
  • 140951Z AUTO 00000KT 10SM CLR 08/06 A2986 RMK AO2 SLP111 T00830056

TAF KVCT
Valid from the 14 at 12:00 until the 15 at 12:00 UTC


141124Z 1412/1512 VRB03KT P6SM SKC
FM141700 15007KT P6SM SKC
FM150800 17006KT 3SM BR SCT008



MET'MAP, your aeronautical weather chart ! - Copyright ORBIFLY December 2007 - Disclaimer

ORBIFLY MET'MAP TEAM :

Programming & Development : Alexandra Zaïnal
Concept & original design : Baudouin d'Aumeries
Assistance for programming : Marc-Olivier Méhu
Technical & hardware support : Manuel Goepfert

Contact : metmap@orbifly.com




SOURCES & CREDITS :

   NOAA       Earth
Advisory